createdAt,value
2023-05-17T00:09:31.242Z,1015.95
2023-05-17T00:24:32.528Z,1015.91
2023-05-17T00:39:32.890Z,1015.94
2023-05-17T00:54:33.036Z,1015.92
2023-05-17T01:09:33.189Z,1015.98
2023-05-17T01:24:33.370Z,1015.98
2023-05-17T01:39:33.900Z,1016.02
2023-05-17T01:54:34.860Z,1016.12
2023-05-17T02:09:36.108Z,1016.08
2023-05-17T02:24:36.241Z,1016.08
2023-05-17T02:39:37.767Z,1016.16
2023-05-17T02:54:38.609Z,1016.22
2023-05-17T03:09:39.910Z,1016.27
2023-05-17T03:24:39.870Z,1016.46
2023-05-17T03:39:40.325Z,1016.58
2023-05-17T03:54:40.648Z,1016.80
2023-05-17T04:09:41.186Z,1016.88
2023-05-17T04:24:41.204Z,1017.01
2023-05-17T04:39:41.353Z,1017.16
2023-05-17T04:54:41.472Z,1017.42
2023-05-17T05:09:41.787Z,1017.60
2023-05-17T05:24:43.104Z,1017.84
2023-05-17T05:39:46.749Z,1018.09
2023-05-17T05:54:47.091Z,1018.30
2023-05-17T06:09:47.212Z,1018.50
2023-05-17T06:24:47.124Z,1018.71
2023-05-17T06:39:55.918Z,1018.99
2023-05-17T06:54:52.597Z,1018.96
2023-05-17T07:09:52.404Z,1019.20
2023-05-17T07:24:54.119Z,1019.19
2023-05-17T07:39:55.079Z,1019.17
2023-05-17T07:54:55.097Z,1019.51
2023-05-17T08:09:55.060Z,1019.62
2023-05-17T08:24:55.226Z,1019.86
2023-05-17T08:39:55.322Z,1019.90
2023-05-17T08:54:55.443Z,1019.88
2023-05-17T09:09:55.869Z,1019.91
2023-05-17T09:24:56.163Z,1019.81
2023-05-17T09:39:56.329Z,1019.77
2023-05-17T09:54:56.300Z,1019.76
2023-05-17T10:09:56.383Z,1019.96
2023-05-17T10:24:57.009Z,1019.95
2023-05-17T10:39:57.963Z,1019.88
2023-05-17T10:54:58.243Z,1020.03
2023-05-17T11:09:58.399Z,1020.06
2023-05-17T11:24:58.648Z,1020.15
2023-05-17T11:39:58.918Z,1020.22
2023-05-17T11:54:59.974Z,1020.22
2023-05-17T12:10:00.758Z,1020.16
2023-05-17T12:25:01.616Z,1020.14
2023-05-17T12:40:01.584Z,1020.29
2023-05-17T12:55:01.399Z,1020.20
2023-05-17T13:10:02.452Z,1020.23
2023-05-17T13:25:02.642Z,1020.24
2023-05-17T13:40:02.926Z,1020.10
2023-05-17T13:55:02.909Z,1020.17
2023-05-17T14:10:07.616Z,1020.20
2023-05-17T14:25:07.484Z,1020.29
2023-05-17T14:40:07.909Z,1020.45
2023-05-17T14:55:08.045Z,1020.49
2023-05-17T15:10:07.946Z,1020.59
2023-05-17T15:25:08.373Z,1020.87
2023-05-17T15:40:08.663Z,1020.98
2023-05-17T15:55:08.746Z,1021.03
2023-05-17T16:10:09.120Z,1021.18
2023-05-17T16:25:09.228Z,1021.14
2023-05-17T16:40:09.775Z,1021.33
2023-05-17T16:55:10.079Z,1021.46
2023-05-17T17:10:14.964Z,1021.56
2023-05-17T17:25:15.342Z,1021.44
2023-05-17T17:40:15.936Z,1021.51
2023-05-17T17:55:16.210Z,1021.61
2023-05-17T18:10:17.082Z,1021.62
2023-05-17T18:25:17.189Z,1021.67
2023-05-17T18:40:18.048Z,1021.93
2023-05-17T18:55:18.230Z,1022.07
2023-05-17T19:10:18.430Z,1022.29
2023-05-17T19:25:20.851Z,1022.57
2023-05-17T19:40:23.507Z,1022.66
2023-05-17T19:55:25.717Z,1022.79
2023-05-17T20:10:25.928Z,1023.03
2023-05-17T20:25:26.152Z,1023.16
2023-05-17T20:40:26.497Z,1023.43
2023-05-17T20:55:26.843Z,1023.57
2023-05-17T21:10:27.266Z,1023.64
2023-05-17T21:25:29.153Z,1023.71
2023-05-17T21:40:30.440Z,1023.76
2023-05-17T21:55:41.169Z,1023.78
2023-05-17T22:10:39.391Z,1023.70
2023-05-17T22:25:39.253Z,1023.73
2023-05-17T22:40:39.863Z,1023.83
2023-05-17T22:55:40.206Z,1023.94
2023-05-17T23:10:40.344Z,1024.07
2023-05-17T23:25:40.316Z,1024.09
2023-05-17T23:40:40.668Z,1024.03
2023-05-17T23:55:40.729Z,1024.14
